createdAt,value
2023-04-20T00:00:58.036Z,5.53
2023-04-20T00:03:27.524Z,4.53
2023-04-20T00:05:55.764Z,3.97
2023-04-20T00:08:23.750Z,3.17
2023-04-20T00:10:51.655Z,7.33
2023-04-20T00:13:19.510Z,5.60
2023-04-20T00:15:47.401Z,6.67
2023-04-20T00:18:15.517Z,6.37
2023-04-20T00:20:44.755Z,5.37
2023-04-20T00:23:12.601Z,3.07
2023-04-20T00:25:40.627Z,5.30
2023-04-20T00:28:08.544Z,3.53
2023-04-20T00:30:38.463Z,3.40
2023-04-20T00:33:06.486Z,2.40
2023-04-20T00:35:34.479Z,4.97
2023-04-20T00:38:03.784Z,7.77
2023-04-20T00:40:31.620Z,3.43
2023-04-20T00:43:09.690Z,4.17
2023-04-20T00:45:37.622Z,4.33
2023-04-20T00:48:06.566Z,7.00
2023-04-20T00:50:35.552Z,4.57
2023-04-20T00:53:06.250Z,5.40
2023-04-20T00:55:35.832Z,4.13
2023-04-20T00:58:04.021Z,7.23
2023-04-20T01:00:33.982Z,4.77
2023-04-20T01:03:02.033Z,4.67
2023-04-20T01:05:30.091Z,3.87
2023-04-20T01:07:58.073Z,3.57
2023-04-20T01:10:27.324Z,4.23
2023-04-20T01:12:55.207Z,4.70
2023-04-20T01:15:23.130Z,3.93
2023-04-20T01:17:52.550Z,7.30
2023-04-20T01:20:23.725Z,4.43
2023-04-20T01:22:54.223Z,7.40
2023-04-20T01:25:23.321Z,5.77
2023-04-20T01:27:51.338Z,2.50
2023-04-20T01:30:19.302Z,7.10
2023-04-20T01:32:47.391Z,5.63
2023-04-20T01:35:15.949Z,3.37
2023-04-20T01:37:43.944Z,3.17
2023-04-20T01:40:14.872Z,6.73
2023-04-20T01:42:43.002Z,2.40
2023-04-20T01:45:11.496Z,4.93
2023-04-20T01:47:39.510Z,4.23
2023-04-20T01:50:08.065Z,3.87
2023-04-20T01:52:36.069Z,5.77
2023-04-20T01:55:03.942Z,3.17
2023-04-20T01:57:33.296Z,4.73
2023-04-20T02:00:01.176Z,2.87
2023-04-20T02:02:29.339Z,4.60
2023-04-20T02:04:57.344Z,4.47
2023-04-20T02:07:25.394Z,6.30
2023-04-20T02:09:53.232Z,3.90
2023-04-20T02:12:21.224Z,3.17
2023-04-20T02:14:50.408Z,4.33
2023-04-20T02:17:18.620Z,3.20
2023-04-20T02:19:46.912Z,4.43
2023-04-20T02:22:15.199Z,3.87
2023-04-20T02:24:43.671Z,3.60
2023-04-20T02:27:11.731Z,5.47
2023-04-20T02:29:39.584Z,3.87
2023-04-20T02:32:09.003Z,5.10
2023-04-20T02:34:36.887Z,3.03
2023-04-20T02:37:04.734Z,4.10
2023-04-20T02:39:34.232Z,3.27
2023-04-20T02:42:02.243Z,5.93
2023-04-20T02:44:30.263Z,4.53
2023-04-20T02:46:58.258Z,3.57
2023-04-20T02:49:27.551Z,4.03
2023-04-20T02:51:55.495Z,4.13
2023-04-20T02:54:23.407Z,7.50
2023-04-20T02:56:51.241Z,3.13
2023-04-20T02:59:19.443Z,5.27
2023-04-20T03:01:47.567Z,4.97
2023-04-20T03:04:15.619Z,3.80
2023-04-20T03:06:45.083Z,4.73
2023-04-20T03:09:13.217Z,5.20
2023-04-20T03:11:41.164Z,6.40
2023-04-20T03:14:09.199Z,9.10
2023-04-20T03:16:37.179Z,3.63
2023-04-20T03:19:05.101Z,3.50
2023-04-20T03:21:33.056Z,4.83
2023-04-20T03:24:02.384Z,7.23
2023-04-20T03:26:30.456Z,5.03
2023-04-20T03:28:58.332Z,4.67
2023-04-20T03:31:26.393Z,4.73
2023-04-20T03:33:54.687Z,5.97
2023-04-20T03:36:22.659Z,2.77
2023-04-20T03:38:50.672Z,7.90
2023-04-20T03:41:19.865Z,4.20
2023-04-20T03:43:47.819Z,5.57
2023-04-20T03:46:15.884Z,3.33
2023-04-20T03:48:44.029Z,4.87
2023-04-20T03:51:11.864Z,4.77
2023-04-20T03:53:39.889Z,6.93
2023-04-20T03:56:08.321Z,3.33
2023-04-20T03:58:37.613Z,6.73
2023-04-20T04:01:07.948Z,4.93
2023-04-20T04:03:36.400Z,5.90
2023-04-20T04:06:05.824Z,3.10
2023-04-20T04:08:33.736Z,7.00
2023-04-20T04:11:01.766Z,3.13
2023-04-20T04:13:29.660Z,4.27
2023-04-20T04:15:58.928Z,4.47
2023-04-20T04:18:29.686Z,3.17
2023-04-20T04:20:57.596Z,3.53
2023-04-20T04:23:26.381Z,6.07
2023-04-20T04:25:54.688Z,3.50
2023-04-20T04:28:22.569Z,3.70
2023-04-20T04:30:51.634Z,6.27
2023-04-20T04:33:21.850Z,4.17
2023-04-20T04:35:49.990Z,2.57
2023-04-20T04:38:18.022Z,5.27
2023-04-20T04:40:46.813Z,5.30
2023-04-20T04:43:14.740Z,5.47
2023-04-20T04:45:42.610Z,4.90
2023-04-20T04:48:11.956Z,6.50
2023-04-20T04:50:41.538Z,4.47
2023-04-20T04:53:09.532Z,5.47
2023-04-20T04:55:37.552Z,6.40
2023-04-20T04:58:05.530Z,6.17
2023-04-20T05:00:33.515Z,5.27
2023-04-20T05:03:02.189Z,6.73
2023-04-20T05:05:30.462Z,7.93
2023-04-20T05:07:59.808Z,7.00
2023-04-20T05:10:27.778Z,4.23
2023-04-20T05:12:55.737Z,4.13
2023-04-20T05:15:23.621Z,4.97
2023-04-20T05:17:51.962Z,5.07
2023-04-20T05:20:20.718Z,5.43
2023-04-20T05:22:48.750Z,4.77
2023-04-20T05:25:19.597Z,4.83
2023-04-20T05:27:47.530Z,7.37
2023-04-20T05:30:21.204Z,6.60
2023-04-20T05:32:51.981Z,3.50
2023-04-20T05:35:21.418Z,8.27
2023-04-20T05:37:49.591Z,5.37
2023-04-20T05:40:18.885Z,4.37
2023-04-20T05:42:46.912Z,12.63
2023-04-20T05:45:14.992Z,8.40
2023-04-20T05:47:42.898Z,5.33
2023-04-20T05:50:11.549Z,8.37
2023-04-20T05:52:39.533Z,5.20
2023-04-20T05:55:08.103Z,3.83
2023-04-20T05:57:42.579Z,5.13
2023-04-20T06:00:12.237Z,3.33
2023-04-20T06:02:40.729Z,4.47
2023-04-20T06:05:10.575Z,4.90
2023-04-20T06:07:39.133Z,4.90
2023-04-20T06:10:08.601Z,3.50
2023-04-20T06:12:38.106Z,3.27
2023-04-20T06:15:10.728Z,4.97
2023-04-20T06:17:40.663Z,6.53
2023-04-20T06:20:10.383Z,6.17
2023-04-20T06:22:43.281Z,6.17
2023-04-20T06:25:11.641Z,5.10
2023-04-20T06:27:41.072Z,3.60
2023-04-20T06:30:09.922Z,5.37
2023-04-20T06:32:38.254Z,4.63
2023-04-20T06:35:07.282Z,5.20
2023-04-20T06:37:36.648Z,5.17
2023-04-20T06:40:07.959Z,5.13
2023-04-20T06:42:35.992Z,4.63
2023-04-20T06:45:06.333Z,4.33
2023-04-20T06:47:34.414Z,5.70
2023-04-20T06:50:04.561Z,4.90
2023-04-20T06:52:32.469Z,5.40
2023-04-20T06:55:00.718Z,4.87
2023-04-20T06:57:28.637Z,4.40
2023-04-20T06:59:56.536Z,5.53
2023-04-20T07:02:25.903Z,4.53
2023-04-20T07:04:54.095Z,3.87
2023-04-20T07:07:22.107Z,5.87
2023-04-20T07:09:49.970Z,9.37
2023-04-20T07:12:17.806Z,4.27
2023-04-20T07:14:45.739Z,3.93
2023-04-20T07:17:13.708Z,3.97
2023-04-20T07:19:43.149Z,4.80
2023-04-20T07:22:11.075Z,4.83
2023-04-20T07:24:38.924Z,5.90
2023-04-20T07:27:08.412Z,4.43
2023-04-20T07:29:36.260Z,6.90
2023-04-20T07:32:04.316Z,7.07
2023-04-20T07:34:32.367Z,4.87
2023-04-20T07:37:02.481Z,3.93
2023-04-20T07:39:30.346Z,3.00
2023-04-20T07:41:58.233Z,3.73
2023-04-20T07:44:26.167Z,4.10
2023-04-20T07:46:54.796Z,3.23
2023-04-20T07:49:22.772Z,5.10
2023-04-20T07:51:50.752Z,3.07
2023-04-20T07:54:20.427Z,2.93
2023-04-20T07:56:48.309Z,3.07
2023-04-20T07:59:16.641Z,3.00
2023-04-20T08:01:44.696Z,2.80
2023-04-20T08:04:12.871Z,3.23
2023-04-20T08:06:41.080Z,2.70
2023-04-20T08:09:09.966Z,2.87
2023-04-20T08:11:41.049Z,3.27
2023-04-20T08:14:09.309Z,1.83
2023-04-20T08:16:37.210Z,3.83
2023-04-20T08:19:10.060Z,2.20
2023-04-20T08:21:38.185Z,3.07
2023-04-20T08:24:06.984Z,2.03
2023-04-20T08:26:35.456Z,2.13
2023-04-20T08:29:05.590Z,2.77
2023-04-20T08:31:33.832Z,1.77
2023-04-20T08:34:01.981Z,1.70
2023-04-20T08:36:29.933Z,4.07
2023-04-20T08:39:07.704Z,2.03
2023-04-20T08:41:35.765Z,3.10
2023-04-20T08:44:05.679Z,3.17
2023-04-20T08:46:35.271Z,1.80
2023-04-20T08:49:03.549Z,2.47
2023-04-20T08:51:32.483Z,1.80
2023-04-20T08:54:06.029Z,1.80
2023-04-20T08:56:37.889Z,2.47
2023-04-20T08:59:10.311Z,2.27
2023-04-20T09:01:39.332Z,2.97
2023-04-20T09:04:17.445Z,2.43
2023-04-20T09:06:46.515Z,1.37
2023-04-20T09:09:14.519Z,2.67
2023-04-20T09:11:42.502Z,1.73
2023-04-20T09:14:13.795Z,1.80
2023-04-20T09:16:51.116Z,2.40
2023-04-20T09:19:23.869Z,2.00
2023-04-20T09:21:53.218Z,1.80
2023-04-20T09:24:22.347Z,1.70
2023-04-20T09:26:50.797Z,1.87
2023-04-20T09:29:21.649Z,1.67
2023-04-20T09:31:51.445Z,1.90
2023-04-20T09:34:19.671Z,1.93
2023-04-20T09:36:50.230Z,2.27
2023-04-20T09:39:20.180Z,1.67
2023-04-20T09:41:48.663Z,1.67
2023-04-20T09:44:18.023Z,1.67
2023-04-20T09:46:47.898Z,1.70
2023-04-20T09:49:15.999Z,2.10
2023-04-20T09:51:46.029Z,1.63
2023-04-20T09:54:15.810Z,1.37
2023-04-20T09:56:44.372Z,1.43
2023-04-20T09:59:13.441Z,1.43
2023-04-20T10:01:41.580Z,0.90
2023-04-20T10:04:14.168Z,0.70
2023-04-20T10:06:54.094Z,0.77
2023-04-20T10:09:24.408Z,3.47
2023-04-20T10:11:54.573Z,0.80
2023-04-20T10:14:25.790Z,2.33
2023-04-20T10:17:01.792Z,0.73
2023-04-20T10:19:41.501Z,1.10
2023-04-20T10:22:10.670Z,0.70
2023-04-20T10:24:39.037Z,1.13
2023-04-20T10:27:17.988Z,1.13
2023-04-20T10:29:46.043Z,0.60
2023-04-20T10:32:23.838Z,0.70
2023-04-20T10:35:04.735Z,0.53
2023-04-20T10:37:32.657Z,1.37
2023-04-20T10:40:00.802Z,1.57
2023-04-20T10:42:29.679Z,1.73
2023-04-20T10:44:57.863Z,0.83
2023-04-20T10:47:30.411Z,1.03
2023-04-20T10:50:09.540Z,0.87
2023-04-20T10:52:38.662Z,1.17
2023-04-20T10:55:08.443Z,2.03
2023-04-20T10:57:37.585Z,0.50
2023-04-20T11:00:16.637Z,0.53
2023-04-20T11:02:49.521Z,0.67
2023-04-20T11:05:19.603Z,0.90
2023-04-20T11:07:54.541Z,0.40
2023-04-20T11:10:23.527Z,0.40
2023-04-20T11:12:52.077Z,0.40
2023-04-20T11:15:20.381Z,0.87
2023-04-20T11:17:48.404Z,0.50
2023-04-20T11:20:18.527Z,0.50
2023-04-20T11:22:56.840Z,0.60
2023-04-20T11:25:24.810Z,0.80
2023-04-20T11:27:52.847Z,0.70
2023-04-20T11:30:21.074Z,0.87
2023-04-20T11:32:55.857Z,1.43
2023-04-20T11:35:25.429Z,1.60
2023-04-20T11:37:54.400Z,1.27
2023-04-20T11:40:22.520Z,1.37
2023-04-20T11:42:50.799Z,1.73
2023-04-20T11:45:18.874Z,1.10
2023-04-20T11:47:47.196Z,0.80
2023-04-20T11:50:15.417Z,1.10
2023-04-20T11:52:44.710Z,1.97
2023-04-20T11:55:12.614Z,1.23
2023-04-20T11:57:40.568Z,1.43
2023-04-20T12:00:09.826Z,1.00
2023-04-20T12:02:37.809Z,1.93
2023-04-20T12:05:06.634Z,2.27
2023-04-20T12:07:34.534Z,3.10
2023-04-20T12:10:05.077Z,1.67
2023-04-20T12:12:34.020Z,1.80
2023-04-20T12:15:02.096Z,4.10
2023-04-20T12:17:30.112Z,3.53
2023-04-20T12:19:58.763Z,1.80
2023-04-20T12:22:26.746Z,3.17
2023-04-20T12:24:54.595Z,1.97
2023-04-20T12:27:25.576Z,1.70
2023-04-20T12:29:53.490Z,1.70
2023-04-20T12:32:21.436Z,1.60
2023-04-20T12:34:49.593Z,1.70
2023-04-20T12:37:17.471Z,2.23
2023-04-20T12:39:45.402Z,3.07
2023-04-20T12:42:13.378Z,2.07
2023-04-20T12:44:42.556Z,2.20
2023-04-20T12:47:10.602Z,2.73
2023-04-20T12:49:38.493Z,2.70
2023-04-20T12:52:07.996Z,4.57
2023-04-20T12:54:36.140Z,2.60
2023-04-20T12:57:04.430Z,2.13
2023-04-20T12:59:32.359Z,2.50
2023-04-20T13:02:01.747Z,7.60
2023-04-20T13:04:30.301Z,5.13
2023-04-20T13:06:58.431Z,2.83
2023-04-20T13:09:27.160Z,2.60
2023-04-20T13:11:55.388Z,3.50
2023-04-20T13:14:23.225Z,4.20
2023-04-20T13:16:53.123Z,3.37
2023-04-20T13:19:24.317Z,3.00
2023-04-20T13:21:52.205Z,2.73
2023-04-20T13:24:20.268Z,2.97
2023-04-20T13:26:48.371Z,6.47
2023-04-20T13:29:16.533Z,3.03
2023-04-20T13:31:44.668Z,3.17
2023-04-20T13:34:12.593Z,3.00
2023-04-20T13:36:42.068Z,3.63
2023-04-20T13:39:11.099Z,2.93
2023-04-20T13:41:39.454Z,4.50
2023-04-20T13:44:07.834Z,7.00
2023-04-20T13:46:35.889Z,3.30
2023-04-20T13:49:04.317Z,3.43
2023-04-20T13:51:32.525Z,2.77
2023-04-20T13:54:01.792Z,2.90
2023-04-20T13:56:29.779Z,2.57
2023-04-20T13:58:57.712Z,4.03
2023-04-20T14:01:26.283Z,2.47
2023-04-20T14:03:54.209Z,2.60
2023-04-20T14:06:22.198Z,4.77
2023-04-20T14:08:50.576Z,2.63
2023-04-20T14:11:20.217Z,2.83
2023-04-20T14:13:48.433Z,3.10
2023-04-20T14:16:16.415Z,2.83
2023-04-20T14:18:44.328Z,2.67
2023-04-20T14:21:12.310Z,7.10
2023-04-20T14:23:40.419Z,2.60
2023-04-20T14:26:08.391Z,2.13
2023-04-20T14:28:37.622Z,2.23
2023-04-20T14:31:05.779Z,4.43
2023-04-20T14:33:33.779Z,3.03
2023-04-20T14:36:01.763Z,2.47
2023-04-20T14:38:29.686Z,3.10
2023-04-20T14:40:57.599Z,2.30
2023-04-20T14:43:25.599Z,3.10
2023-04-20T14:45:55.313Z,3.67
2023-04-20T14:48:24.059Z,2.43
2023-04-20T14:50:52.112Z,3.77
2023-04-20T14:53:21.388Z,3.20
2023-04-20T14:55:49.328Z,2.77
2023-04-20T14:58:18.557Z,6.80
2023-04-20T15:00:46.821Z,3.13
2023-04-20T15:03:17.360Z,3.73
2023-04-20T15:05:45.858Z,3.40
2023-04-20T15:08:14.359Z,3.93
2023-04-20T15:10:42.427Z,3.97
2023-04-20T15:13:10.344Z,4.13
2023-04-20T15:15:48.110Z,4.73
2023-04-20T15:18:18.495Z,3.37
2023-04-20T15:20:46.961Z,2.57
2023-04-20T15:23:15.073Z,2.70
2023-04-20T15:25:43.043Z,2.97
2023-04-20T15:28:11.104Z,2.80
2023-04-20T15:30:39.062Z,3.13
2023-04-20T15:33:06.992Z,3.20
2023-04-20T15:35:36.431Z,4.80
2023-04-20T15:38:04.774Z,2.60
2023-04-20T15:40:32.639Z,2.77
2023-04-20T15:43:00.535Z,4.60
2023-04-20T15:45:29.978Z,3.77
2023-04-20T15:47:58.771Z,2.77
2023-04-20T15:50:27.162Z,2.93
2023-04-20T15:52:56.528Z,2.83
2023-04-20T15:55:24.507Z,6.87
2023-04-20T15:57:57.010Z,4.00
2023-04-20T16:00:25.012Z,3.50
2023-04-20T16:02:54.034Z,2.67
2023-04-20T16:05:22.406Z,4.10
2023-04-20T16:07:50.285Z,2.70
2023-04-20T16:10:19.711Z,4.87
2023-04-20T16:12:47.632Z,2.30
2023-04-20T16:15:16.358Z,2.97
2023-04-20T16:17:44.936Z,4.57
2023-04-20T16:20:13.904Z,2.90
2023-04-20T16:22:41.893Z,3.10
2023-04-20T16:25:12.250Z,2.77
2023-04-20T16:27:41.543Z,3.33
2023-04-20T16:30:11.110Z,4.03
2023-04-20T16:32:41.444Z,4.07
2023-04-20T16:35:10.731Z,4.60
2023-04-20T16:37:38.669Z,2.50
2023-04-20T16:40:09.042Z,2.70
2023-04-20T16:42:36.976Z,5.30
2023-04-20T16:45:07.373Z,2.50
2023-04-20T16:47:35.409Z,2.53
2023-04-20T16:50:06.987Z,2.87
2023-04-20T16:52:34.925Z,3.30
2023-04-20T16:55:03.301Z,4.17
2023-04-20T16:57:31.946Z,3.97
2023-04-20T16:59:59.962Z,3.47
2023-04-20T17:02:32.737Z,2.50
2023-04-20T17:05:00.861Z,3.20
2023-04-20T17:07:29.148Z,2.57
2023-04-20T17:09:57.021Z,2.40
2023-04-20T17:12:25.151Z,3.23
2023-04-20T17:14:53.152Z,2.37
2023-04-20T17:17:21.084Z,2.67
2023-04-20T17:19:50.373Z,2.40
2023-04-20T17:22:18.323Z,4.27
2023-04-20T17:24:46.349Z,2.70
2023-04-20T17:27:15.987Z,3.30
2023-04-20T17:29:44.930Z,2.47
2023-04-20T17:32:12.994Z,3.27
2023-04-20T17:34:41.015Z,2.90
2023-04-20T17:37:11.919Z,2.90
2023-04-20T17:39:39.854Z,2.83
2023-04-20T17:42:07.807Z,3.63
2023-04-20T17:44:35.751Z,3.00
2023-04-20T17:47:03.704Z,4.17
2023-04-20T17:49:32.441Z,2.77
2023-04-20T17:52:00.597Z,4.60
2023-04-20T17:54:29.959Z,2.43
2023-04-20T17:56:58.007Z,2.73
2023-04-20T17:59:26.370Z,3.57
2023-04-20T18:01:54.418Z,3.10
2023-04-20T18:04:22.597Z,3.03
2023-04-20T18:06:51.342Z,3.00
2023-04-20T18:09:19.265Z,2.97
2023-04-20T18:11:48.476Z,3.27
2023-04-20T18:14:16.762Z,3.33
2023-04-20T18:16:44.746Z,3.23
2023-04-20T18:19:12.813Z,2.67
2023-04-20T18:21:40.846Z,2.73
2023-04-20T18:24:08.764Z,2.70
2023-04-20T18:26:36.654Z,4.00
2023-04-20T18:29:05.899Z,3.23
2023-04-20T18:31:34.099Z,4.37
2023-04-20T18:34:02.069Z,3.80
2023-04-20T18:36:31.127Z,3.20
2023-04-20T18:38:59.146Z,3.67
2023-04-20T18:41:27.710Z,4.00
2023-04-20T18:43:57.913Z,3.77
2023-04-20T18:46:27.195Z,4.33
2023-04-20T18:48:55.350Z,4.00
2023-04-20T18:51:23.576Z,3.97
2023-04-20T18:53:51.519Z,3.83
2023-04-20T18:56:19.401Z,4.13
2023-04-20T18:58:47.286Z,4.10
2023-04-20T19:01:15.403Z,3.90
2023-04-20T19:03:47.232Z,5.40
2023-04-20T19:06:16.049Z,3.87
2023-04-20T19:08:44.028Z,3.93
2023-04-20T19:11:11.995Z,4.37
2023-04-20T19:13:45.312Z,5.00
2023-04-20T19:16:13.764Z,8.20
2023-04-20T19:18:41.966Z,3.90
2023-04-20T19:21:11.751Z,4.83
2023-04-20T19:23:39.700Z,3.93
2023-04-20T19:26:07.632Z,4.27
2023-04-20T19:28:35.812Z,5.37
2023-04-20T19:31:03.694Z,4.57
2023-04-20T19:33:31.657Z,4.57
2023-04-20T19:36:00.704Z,5.10
2023-04-20T19:38:31.186Z,5.13
2023-04-20T19:40:59.102Z,5.97
2023-04-20T19:43:27.213Z,5.83
2023-04-20T19:45:56.333Z,5.00
2023-04-20T19:48:24.399Z,4.27
2023-04-20T19:50:52.627Z,5.47
2023-04-20T19:53:21.365Z,3.80
2023-04-20T19:55:51.559Z,5.67
2023-04-20T19:58:19.780Z,6.70
2023-04-20T20:00:48.265Z,5.47
2023-04-20T20:03:16.738Z,4.27
2023-04-20T20:05:45.450Z,5.13
2023-04-20T20:08:13.654Z,4.87
2023-04-20T20:10:41.543Z,4.43
2023-04-20T20:13:10.871Z,6.43
2023-04-20T20:15:39.264Z,5.17
2023-04-20T20:18:07.733Z,5.67
2023-04-20T20:20:37.742Z,6.10
2023-04-20T20:23:06.016Z,5.37
2023-04-20T20:25:35.234Z,5.83
2023-04-20T20:28:03.387Z,4.77
2023-04-20T20:30:33.118Z,6.10
2023-04-20T20:33:01.231Z,7.07
2023-04-20T20:35:31.156Z,7.50
2023-04-20T20:37:59.172Z,5.07
2023-04-20T20:40:27.081Z,5.87
2023-04-20T20:42:55.001Z,6.90
2023-04-20T20:45:23.385Z,5.33
2023-04-20T20:47:52.733Z,4.43
2023-04-20T20:50:20.907Z,8.60
2023-04-20T20:52:48.873Z,5.57
2023-04-20T20:55:16.818Z,6.03
2023-04-20T20:57:45.918Z,6.27
2023-04-20T21:00:15.186Z,7.47
2023-04-20T21:05:12.447Z,4.87
2023-04-20T21:07:40.639Z,6.60
2023-04-20T21:10:09.711Z,8.77
2023-04-20T21:12:37.705Z,9.80
2023-04-20T21:15:06.309Z,6.97
2023-04-20T21:17:34.302Z,7.17
2023-04-20T21:20:03.791Z,6.07
2023-04-20T21:22:33.193Z,7.20
2023-04-20T21:25:01.067Z,6.60
2023-04-20T21:27:28.943Z,8.10
2023-04-20T21:29:56.785Z,8.37
2023-04-20T21:32:24.909Z,7.23
2023-04-20T21:34:53.003Z,6.70
2023-04-20T21:37:20.890Z,6.13
2023-04-20T21:39:50.465Z,7.60
2023-04-20T21:42:18.426Z,8.07
2023-04-20T21:44:46.385Z,6.83
2023-04-20T21:47:14.230Z,7.07
2023-04-20T21:49:43.729Z,6.57
2023-04-20T21:52:11.674Z,9.00
2023-04-20T21:54:40.778Z,7.10
2023-04-20T21:57:10.061Z,8.43
2023-04-20T21:59:37.931Z,7.43
2023-04-20T22:02:05.957Z,7.77
2023-04-20T22:04:33.993Z,7.30
2023-04-20T22:07:02.264Z,8.13
2023-04-20T22:09:30.428Z,7.17
2023-04-20T22:12:01.730Z,6.57
2023-04-20T22:14:31.690Z,8.43
2023-04-20T22:17:01.656Z,9.07
2023-04-20T22:19:30.043Z,9.03
2023-04-20T22:21:57.960Z,7.00
2023-04-20T22:24:26.009Z,8.43
2023-04-20T22:26:53.856Z,8.67
2023-04-20T22:29:21.864Z,8.50
2023-04-20T22:31:51.191Z,7.60
2023-04-20T22:34:19.117Z,9.77
2023-04-20T22:36:47.038Z,10.27
2023-04-20T22:39:14.929Z,8.43
2023-04-20T22:41:42.824Z,9.23
2023-04-20T22:44:10.709Z,7.27
2023-04-20T22:46:38.594Z,9.33
2023-04-20T22:49:08.736Z,7.50
2023-04-20T22:51:36.646Z,7.97
2023-04-20T22:54:04.807Z,8.20
2023-04-20T22:56:33.466Z,6.93
2023-04-20T22:59:01.332Z,7.87
2023-04-20T23:01:29.322Z,10.53
2023-04-20T23:03:57.525Z,10.23
2023-04-20T23:06:29.597Z,8.73
2023-04-20T23:09:00.117Z,8.60
2023-04-20T23:11:29.102Z,7.63
2023-04-20T23:13:57.078Z,10.23
2023-04-20T23:16:28.064Z,8.53
2023-04-20T23:18:56.138Z,8.47
2023-04-20T23:21:23.975Z,10.30
2023-04-20T23:23:53.272Z,11.30
2023-04-20T23:26:21.236Z,13.37
2023-04-20T23:28:51.373Z,9.40
2023-04-20T23:31:19.337Z,9.03
2023-04-20T23:33:47.488Z,10.27
2023-04-20T23:36:15.461Z,8.37
2023-04-20T23:38:43.770Z,12.43
2023-04-20T23:41:14.586Z,8.10
2023-04-20T23:43:42.782Z,8.60
2023-04-20T23:46:10.732Z,8.77
2023-04-20T23:48:38.767Z,9.60
2023-04-20T23:51:06.813Z,7.97
2023-04-20T23:53:36.401Z,8.70
2023-04-20T23:56:04.789Z,10.20
2023-04-20T23:58:34.023Z,13.00
